Latest Weather Observations for Armidale Airport

IDN60801

Issued at 9:02 am EDT Monday 5 December 2016 (issued every 30 minutes, with the page automatically refreshed every 10 minutes)

About weather observations | Map of weather stations | Latest weather observations for NSW | Other Formats
Station Details ID: 056238 Name: ARMIDALE AIRPORT AWS Lat: -30.53 Lon: 151.62 Height: 1079.0 m
Data from the previous 72 hours. | See also: Recent months at Armidale Airport
Date/Time
EDT
Temp
°C
App
Temp
°C
Dew
Point
°C
Rel
Hum
%
Delta-T
°C
Wind Press
QNH
hPa
Press
MSL
hPa
Rain since
9am
mm
Dir  Spd
km/h
Gust
km/h
Spd
kts
Gust
kts
05/09:00am 24.9 22.5 16.3 59 5.5 NNW 24 32 13 17 1018.9 1013.6 0.0
05/08:30am 25.2 23.2 16.4 58 5.6 NW 22 32 12 17 1019.0 1013.7 0.0
05/08:00am 23.6 24.1 15.6 61 5.0 W 7 11 4 6 1018.9 1013.6 0.0
05/07:30am 22.9 21.0 15.2 62 4.8 NNW 19 24 10 13 1018.5 1013.1 0.0
05/07:00am 22.1 21.9 14.7 63 4.6 WNW 9 13 5 7 1018.1 1012.8 0.0
05/06:30am 21.6 20.6 14.5 64 4.4 N 13 19 7 10 1018.3 1012.9 0.0
05/06:00am 20.3 19.6 14.2 68 3.7 N 11 15 6 8 1017.8 1012.4 0.0
05/05:30am 18.6 17.9 11.9 65 3.9 N 7 11 4 6 1017.7 1012.3 0.0
05/05:00am 17.9 17.4 10.8 63 4.0 WSW 4 9 2 5 1017.7 1012.3 0.0
05/04:30am 19.0 17.4 10.3 57 4.9 ENE 9 9 5 5 1017.5 1012.1 0.0
05/04:00am 19.9 17.9 10.0 53 5.6 NNE 11 17 6 9 1017.4 1012.0 0.0
05/03:30am 20.9 17.9 10.7 52 5.9 NE 17 22 9 12 1017.1 1011.8 0.0
05/03:00am 20.0 17.4 12.0 60 4.7 ENE 17 20 9 11 1017.0 1011.7 0.0
05/02:30am 20.5 17.4 12.2 59 4.9 NE 20 24 11 13 1017.1 1011.8 0.0
05/02:00am 20.7 18.0 12.9 61 4.7 ENE 19 24 10 13 1017.5 1012.1 0.0
05/01:30am 20.4 18.0 14.5 69 3.6 ENE 20 24 11 13 1017.8 1012.4 0.0
05/01:00am 20.0 18.0 15.4 75 2.9 ENE 20 24 11 13 1018.5 1013.1 0.0
05/12:30am 20.2 18.3 16.6 80 2.3 ENE 22 28 12 15 1018.8 1013.5 0.0
05/12:00am 20.0 18.8 17.4 85 1.7 E 20 24 11 13 1019.3 1013.9 0.0
 
Date/Time
EDT
Temp
°C
App
Temp
°C
Dew
Point
°C
Rel
Hum
%
Delta-T
°C
Wind Press
QNH
hPa
Press
MSL
hPa
Rain since
9am
mm
Dir  Spd
km/h
Gust
km/h
Spd
kts
Gust
kts
04/11:30pm 20.3 19.2 17.3 83 1.9 ENE 19 24 10 13 1019.5 1014.1 0.0
04/11:00pm 20.8 19.6 17.4 81 2.2 E 20 26 11 14 1019.5 1014.1 0.0
04/10:30pm 21.3 20.1 17.5 79 2.4 E 20 24 11 13 1019.4 1014.0 0.0
04/10:00pm 21.8 20.2 17.4 76 2.8 E 22 28 12 15 1019.0 1013.7 0.0
04/09:30pm 22.4 20.7 17.1 72 3.4 E 22 28 12 15 1018.9 1013.6 0.0
04/09:00pm 23.1 21.4 17.1 69 3.9 E 22 30 12 16 1018.8 1013.5 0.0
04/08:30pm 23.7 22.1 16.5 64 4.6 E 20 26 11 14 1018.7 1013.3 0.0
04/08:00pm 24.9 23.0 15.8 57 5.8 ESE 20 35 11 19 1018.3 1012.9 0.0
04/07:30pm 26.4 24.0 13.9 46 7.8 SE 19 33 10 18 1018.1 1012.8 0.0
04/07:00pm 28.9 27.5 9.6 30 11.3 NNW 7 9 4 5 1017.6 1012.2 0.0
04/06:30pm 29.7 28.1 8.7 27 12.2 NNW 7 9 4 5 1017.3 1011.9 0.0
04/06:00pm 30.4 30.0 8.2 25 12.8 CALM 0 6 0 3 1017.1 1011.8 0.0
04/05:30pm 29.3 28.0 9.9 30 11.4 WSW 7 9 4 5 1017.1 1011.8 0.0
04/05:00pm 29.5 26.6 8.0 26 12.3 WSW 13 19 7 10 1017.5 1012.1 0.0
04/04:30pm 31.3 27.9 7.7 23 13.6 NW 15 24 8 13 1017.4 1012.0 0.0
04/04:00pm 30.8 28.3 6.6 22 13.6 WNW 9 15 5 8 1017.6 1012.2 0.0
04/03:30pm 31.1 27.6 5.5 20 14.2 WSW 13 20 7 11 1017.9 1012.6 0.0
04/03:00pm 30.9 26.9 6.7 22 13.6 WNW 17 24 9 13 1018.1 1012.8 0.0
04/02:30pm 30.2 25.6 5.5 21 13.6 SW 19 28 10 15 1018.4 1013.0 0.0
04/02:00pm 30.6 27.2 5.8 21 13.8 WSW 13 22 7 12 1018.6 1013.2 0.0
04/01:30pm 29.8 26.3 7.1 24 12.8 WSW 15 24 8 13 1018.8 1013.5 0.0
04/01:00pm 30.2 27.3 9.7 28 12.1 SW 15 24 8 13 1019.3 1013.9 0.0
04/12:30pm 29.1 27.0 9.8 30 11.4 W 11 22 6 12 1019.5 1014.1 0.0
04/12:00pm 29.0 26.0 10.6 32 10.9 W 17 20 9 11 1019.8 1014.5 0.0
04/11:30am 27.9 25.5 12.7 39 9.3 WNW 17 22 9 12 1020.0 1014.7 0.0
04/11:00am 26.6 23.6 12.6 42 8.5 NW 20 26 11 14 1020.4 1015.0 0.0
04/10:30am 25.7 22.1 12.9 45 7.8 NW 24 33 13 18 1020.5 1015.2 0.0
04/10:00am 25.8 22.6 13.0 45 7.8 NW 22 28 12 15 1020.6 1015.3 0.0
04/09:30am 25.1 21.7 13.6 49 7.1 NW 24 33 13 18 1020.7 1015.4 0.0
04/09:00am 24.0 19.7 13.2 50 6.6 NW 28 37 15 20 1020.5 1015.2 0.6
04/08:30am 23.6 20.5 13.5 53 6.2 NW 22 30 12 16 1020.4 1015.0 0.6
04/08:00am 21.5 19.1 12.6 57 5.3 WNW 17 22 9 12 1020.5 1015.2 0.6
04/07:30am 20.4 18.9 11.9 58 5.0 WNW 11 15 6 8 1020.1 1014.8 0.6
04/07:00am 18.5 16.9 11.6 64 4.0 WNW 11 13 6 7 1020.1 1014.8 0.6
04/06:30am 16.1 15.0 10.6 70 3.1 WNW 7 9 4 5 1019.8 1014.5 0.6
04/06:00am 15.2 13.3 10.4 73 2.7 W 11 11 6 6 1019.7 1014.4 0.6
04/05:30am 13.8 11.9 10.6 81 1.8 WNW 11 13 6 7 1019.4 1014.0 0.6
04/05:00am 13.8 12.7 10.8 82 1.7 W 7 9 4 5 1019.3 1013.9 0.6
04/04:30am 13.5 12.0 10.5 82 1.7 WNW 9 11 5 6 1019.1 1013.8 0.6
04/04:00am 14.1 12.6 10.7 80 1.9 W 9 11 5 6 1019.1 1013.8 0.6
04/03:30am 15.1 13.2 11.7 80 1.9 SW 13 17 7 9 1019.4 1014.0 0.6
04/03:00am 13.1 11.5 10.3 83 1.5 WSW 9 13 5 7 1019.3 1013.9 0.6
04/02:30am 14.0 12.8 10.2 78 2.1 W 7 7 4 4 1019.5 1014.1 0.6
04/02:00am 15.8 16.1 11.0 73 2.7 CALM 0 0 0 0 1019.7 1014.4 0.6
04/01:30am 17.0 16.4 10.4 65 3.7 NE 4 11 2 6 1019.7 1014.4 0.6
04/01:00am 18.3 15.4 10.9 62 4.2 ENE 17 24 9 13 1019.7 1014.4 0.6
04/12:30am 17.2 14.2 10.6 65 3.7 ENE 17 20 9 11 1019.9 1014.6 0.6
04/12:00am 17.3 13.9 10.4 64 3.9 ENE 19 20 10 11 1019.9 1014.6 0.6
 
Date/Time
EDT
Temp
°C
App
Temp
°C
Dew
Point
°C
Rel
Hum
%
Delta-T
°C
Wind Press
QNH
hPa
Press
MSL
hPa
Rain since
9am
mm
Dir  Spd
km/h
Gust
km/h
Spd
kts
Gust
kts
03/11:30pm 18.1 14.0 10.2 60 4.4 NE 22 30 12 16 1020.0 1014.7 0.6
03/11:00pm 17.3 13.7 10.0 62 4.1 ENE 19 26 10 14 1020.1 1014.8 0.6
03/10:30pm 17.8 14.0 9.9 60 4.4 ENE 20 24 11 13 1019.9 1014.6 0.6
03/10:00pm 17.9 14.2 10.3 61 4.3 E 20 28 11 15 1019.8 1014.5 0.6
03/09:30pm 18.3 14.9 11.1 63 4.1 E 20 26 11 14 1019.8 1014.5 0.6
03/09:00pm 18.6 14.6 11.9 65 3.9 ENE 24 30 13 16 1019.4 1014.0 0.6
03/08:30pm 19.6 14.2 12.1 62 4.4 E 32 41 17 22 1018.9 1013.6 0.6
03/08:00pm 20.8 18.4 16.4 76 2.8 E 24 35 13 19 1018.3 1012.9 0.6
03/07:30pm 21.9 19.7 14.5 63 4.6 E 19 26 10 14 1017.6 1012.2 0.6
03/07:00pm 22.4 19.4 11.8 51 6.3 E 19 24 10 13 1016.7 1011.3 0.6
03/06:30pm 22.6 20.8 12.0 51 6.3 ESE 13 15 7 8 1016.1 1010.7 0.6
03/06:00pm 23.8 21.5 11.8 47 7.1 N 15 26 8 14 1016.1 1010.7 0.6
03/05:30pm 21.8 18.6 11.2 51 6.2 NW 19 28 10 15 1017.0 1011.7 0.6
03/05:09pm 22.9 20.0 11.0 47 6.9 NW 17 44 9 24 1016.9 1011.5 0.6
03/05:00pm 24.3 21.9 10.2 41 8.2 NNW 13 17 7 9 1016.8 1011.4 0.0
03/04:30pm 24.9 21.6 8.0 34 9.5 NW 15 28 8 15 1016.3 1010.9 0.0
03/04:14pm 25.8 20.4 6.4 29 10.6 WSW 24 52 13 28 1016.7 1011.3 0.0
03/04:00pm 24.0 17.9 8.4 37 8.8 SW 30 61 16 33 1015.7 1010.3 0.0
03/03:53pm 23.7 16.9 7.8 36 8.8 WSW 33 61 18 33 1017.0 1011.7 0.0
03/03:48pm 24.4 20.1 8.0 35 9.2 WSW 20 54 11 29 1017.1 1011.8 0.0
03/03:30pm 23.4 18.5 10.1 43 7.7 N 26 41 14 22 1016.7 1011.3 0.0
03/03:24pm 23.5 18.2 8.4 38 8.5 NNW 26 41 14 22 1016.9 1011.5 0.0
03/03:04pm 28.8 22.9 5.6 23 12.7 W 26 54 14 29 1016.6 1011.2 0.0
03/03:00pm 29.2 23.2 7.2 25 12.4 W 28 41 15 22 1016.5 1011.1 0.0
03/02:30pm 31.7 27.2 8.7 24 13.4 WNW 22 33 12 18 1016.5 1011.1 0.0
03/02:00pm 31.9 26.8 7.5 22 14.0 WNW 24 43 13 23 1016.9 1011.5 0.0
03/01:30pm 31.1 26.1 8.2 24 13.2 NW 24 35 13 19 1017.4 1012.0 0.0
03/01:00pm 30.6 26.3 9.5 27 12.4 WNW 22 39 12 21 1017.8 1012.4 0.0
03/12:30pm 30.4 24.9 9.3 27 12.4 NW 28 39 15 21 1018.1 1012.8 0.0
03/12:00pm 30.1 24.7 9.6 28 12.1 NW 28 35 15 19 1018.3 1012.9 0.0
03/11:30am 30.0 26.3 10.0 29 11.8 NW 20 39 11 21 1018.5 1013.1 0.0
03/11:00am 28.3 23.8 10.0 32 10.7 N 24 35 13 19 1018.7 1013.3 0.0
03/10:30am 28.2 24.2 9.0 30 11.1 NNW 20 32 11 17 1018.9 1013.6 0.0
03/10:00am 27.5 22.0 7.4 28 11.3 N 26 35 14 19 1019.1 1013.8 0.0
03/09:30am 27.0 22.3 5.9 26 11.5 NNE 20 28 11 15 1019.1 1013.8 0.0
03/09:00am 25.9 22.1 7.5 31 10.3 NNE 17 20 9 11 1019.1 1013.8 0.0
03/08:30am 25.2 20.1 5.9 29 10.4 NE 22 30 12 16 1019.0 1013.7 0.0
03/08:00am 24.0 19.4 5.4 30 9.9 NE 19 24 10 13 1018.7 1013.3 0.0
03/07:30am 21.3 17.0 5.2 35 8.4 NE 17 22 9 12 1018.6 1013.2 0.0
03/07:00am 20.6 16.6 5.0 36 8.1 NE 15 20 8 11 1018.3 1012.9 0.0
03/06:30am 18.6 15.0 6.8 46 6.2 ENE 15 17 8 9 1018.1 1012.8 0.0
03/06:00am 16.7 13.6 8.7 59 4.3 ENE 15 17 8 9 1017.9 1012.6 0.0
03/05:30am 17.5 14.6 9.7 60 4.3 ENE 15 17 8 9 1017.8 1012.4 0.0
03/05:00am 17.5 14.4 8.9 57 4.7 ENE 15 17 8 9 1017.7 1012.3 0.0
03/04:30am 18.0 14.2 7.7 51 5.5 ENE 17 19 9 10 1017.7 1012.3 0.0
03/04:00am 18.3 14.9 7.7 50 5.7 E 15 17 8 9 1017.9 1012.6 0.0
03/03:30am 18.5 16.2 7.3 48 6.0 ESE 9 13 5 7 1018.3 1012.9 0.0
03/03:00am 18.7 16.7 7.2 47 6.1 E 7 11 4 6 1018.3 1012.9 0.0
03/02:30am 19.5 16.6 6.6 43 6.8 ESE 11 15 6 8 1018.6 1013.2 0.0
03/02:00am 19.9 17.3 7.6 45 6.6 ESE 11 17 6 9 1018.6 1013.2 0.0
03/01:30am 19.7 17.2 8.4 48 6.2 E 11 15 6 8 1018.8 1013.5 0.0
03/01:00am 19.9 16.0 8.6 48 6.2 E 19 22 10 12 1018.8 1013.5 0.0
03/12:30am 19.9 16.5 9.2 50 6.0 ENE 17 20 9 11 1019.4 1014.0 0.0
03/12:00am 20.0 16.6 9.3 50 6.0 ENE 17 19 9 10 1019.6 1014.3 0.0
 
Date/Time
EDT
Temp
°C
App
Temp
°C
Dew
Point
°C
Rel
Hum
%
Delta-T
°C
Wind Press
QNH
hPa
Press
MSL
hPa
Rain since
9am
mm
Dir  Spd
km/h
Gust
km/h
Spd
kts
Gust
kts
02/11:30pm 21.1 17.8 8.0 43 7.2 E 15 20 8 11 1019.8 1014.5 0.0
02/11:00pm 21.8 19.2 7.6 40 7.8 SE 11 15 6 8 1019.7 1014.4 0.0
02/10:30pm 21.3 19.3 7.2 40 7.6 ESE 7 11 4 6 1019.6 1014.3 0.0
02/10:00pm 22.5 20.3 6.3 35 8.7 S 7 9 4 5 1019.1 1013.8 0.0
02/09:30pm 22.2 19.7 6.4 36 8.5 SSW 9 11 5 6 1019.0 1013.7 0.0
02/09:00pm 22.8 20.3 6.6 35 8.7 S 9 11 5 6 1018.7 1013.3 0.0
02/08:30pm 23.6 20.2 6.0 32 9.5 S 13 15 7 8 1018.4 1013.0 0.0
02/08:00pm 24.7 20.8 5.5 29 10.3 SSW 15 24 8 13 1017.8 1012.4 0.0
02/07:30pm 25.7 23.4 5.8 28 10.8 SSW 7 13 4 7 1017.1 1011.8 0.0
02/07:00pm 26.0 23.6 7.1 30 10.5 SSW 9 11 5 6 1016.8 1011.4 0.0
02/06:30pm 26.6 23.2 6.1 27 11.2 SSW 13 17 7 9 1016.8 1011.4 0.0
02/06:00pm 26.8 22.4 4.6 24 11.8 SSW 17 22 9 12 1016.6 1011.2 0.0
02/05:30pm 27.9 22.4 4.2 22 12.6 SW 22 28 12 15 1016.1 1010.7 0.0
02/05:00pm 29.9 25.7 5.9 22 13.3 SW 17 24 9 13 1015.9 1010.5 0.0
02/04:30pm 27.9 22.8 4.2 22 12.6 SW 20 30 11 16 1015.9 1010.5 0.0
02/04:00pm 29.1 22.3 3.1 19 13.7 SW 28 39 15 21 1015.8 1010.4 0.0
02/03:30pm 29.4 22.8 6.1 23 12.9 SW 30 41 16 22 1015.7 1010.3 0.0
02/03:12pm 30.0 23.6 5.3 21 13.6 SW 28 46 15 25 1015.7 1010.3 0.0
02/03:00pm 29.5 23.6 5.6 22 13.2 SW 26 37 14 20 1015.8 1010.4 0.0
02/02:47pm 29.6 23.3 5.6 22 13.2 SW 28 46 15 25 1015.7 1010.3 0.0
02/02:30pm 29.9 23.6 7.2 24 12.9 SW 30 43 16 23 1015.9 1010.5 0.0
02/02:00pm 29.2 22.8 5.3 22 13.1 WSW 28 39 15 21 1015.9 1010.5 0.0
02/01:30pm 28.6 23.8 7.2 26 12.0 WSW 22 35 12 19 1016.3 1010.9 0.0
02/01:00pm 27.7 23.5 7.5 28 11.4 WSW 19 26 10 14 1016.3 1010.9 0.0
02/12:30pm 27.7 23.7 8.1 29 11.1 W 19 30 10 16 1016.3 1010.9 0.0
02/12:00pm 27.3 22.6 5.0 24 12.0 W 19 28 10 15 1016.1 1010.7 0.0
02/11:30am 26.8 22.3 6.8 28 11.1 W 20 30 11 16 1016.3 1010.9 0.0
02/11:00am 26.1 21.7 7.2 30 10.5 WSW 20 26 11 14 1016.1 1010.7 0.0
02/10:30am 25.5 22.2 8.1 33 9.8 WNW 15 20 8 11 1015.8 1010.4 0.0
02/10:00am 24.6 21.5 9.0 37 8.9 WNW 15 20 8 11 1015.7 1010.3 0.0
02/09:30am 23.9 20.4 10.2 42 7.9 WNW 19 28 10 15 1015.8 1010.4 0.0

Other Formats:

Comma delimited format used in spreadsheet applications
http://www.bom.gov.au/fwo/IDN60801/IDN60801.95773.axf

JavaScript Object Notation format (JSON) in row-major order
http://www.bom.gov.au/fwo/IDN60801/IDN60801.95773.json